sensor_id;sensor_type;location;lat;lon;timestamp;pressure;altitude;pressure_sealevel;temperature;humidity
70684;BME280;58263;48.146;11.440;2023-08-06T00:01:36;95057.66;;;15.59;89.75
70684;BME280;58263;48.146;11.440;2023-08-06T00:04:01;95060.97;;;15.50;90.76
70684;BME280;58263;48.146;11.440;2023-08-06T00:06:26;95057.97;;;15.52;90.59
70684;BME280;58263;48.146;11.440;2023-08-06T00:08:51;95057.69;;;15.53;90.50
70684;BME280;58263;48.146;11.440;2023-08-06T00:11:17;95056.09;;;15.47;90.04
70684;BME280;58263;48.146;11.440;2023-08-06T00:13:42;95052.31;;;15.43;89.32
70684;BME280;58263;48.146;11.440;2023-08-06T00:16:09;95054.84;;;15.24;87.72
70684;BME280;58263;48.146;11.440;2023-08-06T00:18:34;95055.91;;;15.28;89.10
70684;BME280;58263;48.146;11.440;2023-08-06T00:20:59;95048.16;;;15.06;87.96
70684;BME280;58263;48.146;11.440;2023-08-06T00:23:25;95049.25;;;15.05;88.27
70684;BME280;58263;48.146;11.440;2023-08-06T00:25:50;95047.91;;;15.08;88.25
70684;BME280;58263;48.146;11.440;2023-08-06T00:28:15;95050.56;;;15.13;88.13
70684;BME280;58263;48.146;11.440;2023-08-06T00:30:40;95048.16;;;15.06;88.31
70684;BME280;58263;48.146;11.440;2023-08-06T00:33:06;95043.31;;;15.03;88.79
70684;BME280;58263;48.146;11.440;2023-08-06T00:35:31;95036.28;;;15.12;88.01
70684;BME280;58263;48.146;11.440;2023-08-06T00:37:56;95044.38;;;15.12;87.32
70684;BME280;58263;48.146;11.440;2023-08-06T00:40:22;95033.09;;;15.00;88.28
70684;BME280;58263;48.146;11.440;2023-08-06T00:42:47;95040.38;;;14.99;89.63
70684;BME280;58263;48.146;11.440;2023-08-06T00:45:13;95043.91;;;14.95;89.05
70684;BME280;58263;48.146;11.440;2023-08-06T00:47:38;95046.59;;;14.90;88.98
70684;BME280;58263;48.146;11.440;2023-08-06T00:50:06;95048.22;;;14.91;88.14
70684;BME280;58263;48.146;11.440;2023-08-06T00:52:33;95043.63;;;15.01;86.51
70684;BME280;58263;48.146;11.440;2023-08-06T00:54:58;95042.84;;;14.91;87.46
70684;BME280;58263;48.146;11.440;2023-08-06T00:57:24;95035.28;;;14.87;87.53
70684;BME280;58263;48.146;11.440;2023-08-06T00:59:51;95025.03;;;14.84;88.12
70684;BME280;58263;48.146;11.440;2023-08-06T01:02:16;95012.38;;;14.75;88.55
70684;BME280;58263;48.146;11.440;2023-08-06T01:04:41;95017.50;;;14.71;89.04
70684;BME280;58263;48.146;11.440;2023-08-06T01:10:16;95014.25;;;14.59;89.22
70684;BME280;58263;48.146;11.440;2023-08-06T01:12:52;95019.13;;;14.72;89.32
70684;BME280;58263;48.146;11.440;2023-08-06T01:15:42;95017.22;;;14.62;91.12
70684;BME280;58263;48.146;11.440;2023-08-06T01:18:10;95012.94;;;14.72;90.80
70684;BME280;58263;48.146;11.440;2023-08-06T01:20:35;95009.69;;;14.69;90.72
70684;BME280;58263;48.146;11.440;2023-08-06T01:23:01;95008.63;;;14.60;91.05
70684;BME280;58263;48.146;11.440;2023-08-06T01:25:33;95004.84;;;14.66;91.43
70684;BME280;58263;48.146;11.440;2023-08-06T01:28:11;95000.25;;;14.51;92.25
70684;BME280;58263;48.146;11.440;2023-08-06T01:30:41;95000.81;;;14.48;91.03
70684;BME280;58263;48.146;11.440;2023-08-06T01:33:10;94997.84;;;14.45;91.79
70684;BME280;58263;48.146;11.440;2023-08-06T01:35:39;94987.88;;;14.45;92.38
70684;BME280;58263;48.146;11.440;2023-08-06T01:38:04;94999.19;;;14.42;91.47
70684;BME280;58263;48.146;11.440;2023-08-06T01:40:30;95001.63;;;14.44;91.44
70684;BME280;58263;48.146;11.440;2023-08-06T01:42:55;94988.94;;;14.39;92.41
70684;BME280;58263;48.146;11.440;2023-08-06T01:45:21;94993.00;;;14.42;93.16
70684;BME280;58263;48.146;11.440;2023-08-06T01:47:46;94997.59;;;14.41;92.43
70684;BME280;58263;48.146;11.440;2023-08-06T01:50:11;94993.53;;;14.44;92.10
70684;BME280;58263;48.146;11.440;2023-08-06T01:52:37;94987.31;;;14.48;91.41
70684;BME280;58263;48.146;11.440;2023-08-06T01:55:02;94977.59;;;14.42;92.62
70684;BME280;58263;48.146;11.440;2023-08-06T01:57:28;94984.63;;;14.38;93.00
70684;BME280;58263;48.146;11.440;2023-08-06T01:59:53;94980.34;;;14.37;91.34
70684;BME280;58263;48.146;11.440;2023-08-06T02:02:18;94976.53;;;14.43;91.62
70684;BME280;58263;48.146;11.440;2023-08-06T02:04:44;94976.53;;;14.38;92.01
70684;BME280;58263;48.146;11.440;2023-08-06T02:07:09;94972.75;;;14.39;91.20
70684;BME280;58263;48.146;11.440;2023-08-06T02:09:34;94977.09;;;14.35;90.53
70684;BME280;58263;48.146;11.440;2023-08-06T02:12:00;94969.56;;;14.27;91.34
70684;BME280;58263;48.146;11.440;2023-08-06T02:14:26;94969.56;;;14.27;90.95
70684;BME280;58263;48.146;11.440;2023-08-06T02:16:51;94965.50;;;14.24;91.70
70684;BME280;58263;48.146;11.440;2023-08-06T02:19:16;94961.47;;;14.32;91.05
70684;BME280;58263;48.146;11.440;2023-08-06T02:21:42;94963.09;;;14.17;91.18
70684;BME280;58263;48.146;11.440;2023-08-06T02:24:07;94956.63;;;14.18;91.51
70684;BME280;58263;48.146;11.440;2023-08-06T02:26:32;94956.34;;;14.25;91.69
70684;BME280;58263;48.146;11.440;2023-08-06T02:28:57;94955.00;;;14.17;90.75
70684;BME280;58263;48.146;11.440;2023-08-06T02:31:23;94956.63;;;14.08;90.21
70684;BME280;58263;48.146;11.440;2023-08-06T02:33:48;94947.47;;;14.14;92.44
70684;BME280;58263;48.146;11.440;2023-08-06T02:36:13;94938.31;;;14.10;90.79
70684;BME280;58263;48.146;11.440;2023-08-06T02:38:39;94939.38;;;14.14;90.94
70684;BME280;58263;48.146;11.440;2023-08-06T02:41:04;94933.19;;;14.14;91.60
70684;BME280;58263;48.146;11.440;2023-08-06T02:43:30;94921.34;;;13.94;91.66
70684;BME280;58263;48.146;11.440;2023-08-06T02:45:59;94909.44;;;14.06;90.48
70684;BME280;58263;48.146;11.440;2023-08-06T02:48:25;94916.22;;;13.93;91.41
70684;BME280;58263;48.146;11.440;2023-08-06T02:50:50;94920.53;;;13.99;92.29
70684;BME280;58263;48.146;11.440;2023-08-06T02:53:15;94915.66;;;14.06;90.22
70684;BME280;58263;48.146;11.440;2023-08-06T02:55:45;94914.88;;;13.90;91.30
70684;BME280;58263;48.146;11.440;2023-08-06T02:58:13;94915.94;;;13.89;91.35
70684;BME280;58263;48.146;11.440;2023-08-06T03:00:38;94906.78;;;14.00;90.94
70684;BME280;58263;48.146;11.440;2023-08-06T03:03:03;94908.69;;;13.95;91.52
70684;BME280;58263;48.146;11.440;2023-08-06T03:05:29;94915.38;;;14.02;91.17
70684;BME280;58263;48.146;11.440;2023-08-06T03:07:54;94918.63;;;13.94;91.21
70684;BME280;58263;48.146;11.440;2023-08-06T03:10:19;94934.25;;;13.97;89.55
70684;BME280;58263;48.146;11.440;2023-08-06T03:12:45;94937.25;;;13.91;91.38
70684;BME280;58263;48.146;11.440;2023-08-06T03:15:10;94943.97;;;13.93;90.41
70684;BME280;58263;48.146;11.440;2023-08-06T03:17:35;94924.31;;;13.88;91.09
70684;BME280;58263;48.146;11.440;2023-08-06T03:20:01;94931.88;;;13.91;90.71
70684;BME280;58263;48.146;11.440;2023-08-06T03:22:26;94930.78;;;13.92;90.97
70684;BME280;58263;48.146;11.440;2023-08-06T03:24:51;94925.66;;;13.90;91.10
70684;BME280;58263;48.146;11.440;2023-08-06T03:27:17;94919.75;;;13.88;90.79
70684;BME280;58263;48.146;11.440;2023-08-06T03:29:42;94922.13;;;14.00;90.39
70684;BME280;58263;48.146;11.440;2023-08-06T03:32:07;94913.25;;;13.94;90.82
70684;BME280;58263;48.146;11.440;2023-08-06T03:34:32;94905.94;;;14.00;90.32
70684;BME280;58263;48.146;11.440;2023-08-06T03:36:58;94912.97;;;14.01;90.09
70684;BME280;58263;48.146;11.440;2023-08-06T03:39:23;94912.22;;;13.80;88.63
70684;BME280;58263;48.146;11.440;2023-08-06T03:41:48;94924.84;;;13.84;90.94
70684;BME280;58263;48.146;11.440;2023-08-06T03:44:14;94915.69;;;13.80;90.81
70684;BME280;58263;48.146;11.440;2023-08-06T03:46:39;94910.31;;;13.85;89.75
70684;BME280;58263;48.146;11.440;2023-08-06T03:49:04;94912.72;;;13.82;90.05
70684;BME280;58263;48.146;11.440;2023-08-06T03:51:30;94908.97;;;13.67;90.61
70684;BME280;58263;48.146;11.440;2023-08-06T03:53:55;94906.53;;;13.76;89.91
70684;BME280;58263;48.146;11.440;2023-08-06T03:56:20;94908.69;;;13.74;90.16
70684;BME280;58263;48.146;11.440;2023-08-06T03:58:45;94905.19;;;13.79;89.27
70684;BME280;58263;48.146;11.440;2023-08-06T04:01:11;94901.69;;;13.68;89.75
70684;BME280;58263;48.146;11.440;2023-08-06T04:03:36;94902.22;;;13.80;89.46
70684;BME280;58263;48.146;11.440;2023-08-06T04:06:02;94900.06;;;13.72;90.42
70684;BME280;58263;48.146;11.440;2023-08-06T04:08:28;94899.78;;;13.68;90.25
70684;BME280;58263;48.146;11.440;2023-08-06T04:10:53;94904.13;;;13.75;90.55
70684;BME280;58263;48.146;11.440;2023-08-06T04:13:19;94896.81;;;13.70;89.23
70684;BME280;58263;48.146;11.440;2023-08-06T04:15:45;94899.00;;;13.63;90.99
70684;BME280;58263;48.146;11.440;2023-08-06T04:18:10;94904.91;;;13.70;89.68
70684;BME280;58263;48.146;11.440;2023-08-06T04:20:45;94910.31;;;13.65;90.81
70684;BME280;58263;48.146;11.440;2023-08-06T04:23:10;94910.06;;;13.72;89.71
70684;BME280;58263;48.146;11.440;2023-08-06T04:25:36;94915.69;;;13.70;90.51
70684;BME280;58263;48.146;11.440;2023-08-06T04:28:01;94907.91;;;13.63;90.23
70684;BME280;58263;48.146;11.440;2023-08-06T04:30:26;94916.25;;;13.72;89.64
70684;BME280;58263;48.146;11.440;2023-08-06T04:32:52;94919.75;;;13.78;89.28
70684;BME280;58263;48.146;11.440;2023-08-06T04:35:17;94920.00;;;13.76;89.60
70684;BME280;58263;48.146;11.440;2023-08-06T04:37:42;94921.09;;;13.85;88.98
70684;BME280;58263;48.146;11.440;2023-08-06T04:40:08;94918.13;;;13.87;89.03
70684;BME280;58263;48.146;11.440;2023-08-06T04:42:34;94920.53;;;13.83;87.38
70684;BME280;58263;48.146;11.440;2023-08-06T04:45:01;94926.19;;;13.92;88.59
70684;BME280;58263;48.146;11.440;2023-08-06T04:47:26;94927.56;;;13.90;89.15
70684;BME280;58263;48.146;11.440;2023-08-06T04:49:52;94927.00;;;13.93;88.93
70684;BME280;58263;48.146;11.440;2023-08-06T04:52:17;94924.03;;;13.99;88.43
70684;BME280;58263;48.146;11.440;2023-08-06T04:54:43;94921.06;;;13.96;88.70
70684;BME280;58263;48.146;11.440;2023-08-06T04:57:09;94909.19;;;13.92;87.68
70684;BME280;58263;48.146;11.440;2023-08-06T04:59:34;94917.84;;;13.94;87.14
70684;BME280;58263;48.146;11.440;2023-08-06T05:01:59;94912.69;;;14.08;88.24
70684;BME280;58263;48.146;11.440;2023-08-06T05:04:25;94911.91;;;13.97;88.23
70684;BME280;58263;48.146;11.440;2023-08-06T05:06:50;94906.50;;;13.97;88.47
70684;BME280;58263;48.146;11.440;2023-08-06T05:09:15;94904.34;;;13.94;88.83
70684;BME280;58263;48.146;11.440;2023-08-06T05:11:40;94905.94;;;14.10;88.72
70684;BME280;58263;48.146;11.440;2023-08-06T05:14:06;94900.03;;;14.03;87.68
70684;BME280;58263;48.146;11.440;2023-08-06T05:16:31;94902.44;;;14.10;88.30
70684;BME280;58263;48.146;11.440;2023-08-06T05:18:56;94900.84;;;14.03;88.13
70684;BME280;58263;48.146;11.440;2023-08-06T05:21:22;94896.22;;;14.09;87.64
70684;BME280;58263;48.146;11.440;2023-08-06T05:23:47;94894.88;;;14.01;87.70
70684;BME280;58263;48.146;11.440;2023-08-06T05:26:12;94897.03;;;14.15;86.91
70684;BME280;58263;48.146;11.440;2023-08-06T05:28:39;94903.19;;;14.20;86.70
70684;BME280;58263;48.146;11.440;2023-08-06T05:31:06;94913.47;;;14.24;86.46
70684;BME280;58263;48.146;11.440;2023-08-06T05:33:32;94916.41;;;14.32;86.82
70684;BME280;58263;48.146;11.440;2023-08-06T05:35:57;94919.63;;;14.34;85.39
70684;BME280;58263;48.146;11.440;2023-08-06T05:38:22;94913.41;;;14.34;85.93
70684;BME280;58263;48.146;11.440;2023-08-06T05:40:47;94915.59;;;14.37;85.54
70684;BME280;58263;48.146;11.440;2023-08-06T05:43:14;94918.81;;;14.39;85.73
70684;BME280;58263;48.146;11.440;2023-08-06T05:45:39;94918.81;;;14.39;85.38
70684;BME280;58263;48.146;11.440;2023-08-06T05:48:04;94910.38;;;14.56;84.25
70684;BME280;58263;48.146;11.440;2023-08-06T05:50:30;94917.09;;;14.59;84.32
70684;BME280;58263;48.146;11.440;2023-08-06T05:52:55;94906.88;;;14.56;84.82
70684;BME280;58263;48.146;11.440;2023-08-06T05:55:20;94900.47;;;14.41;83.01
70684;BME280;58263;48.146;11.440;2023-08-06T05:57:46;94917.91;;;14.69;84.79
70684;BME280;58263;48.146;11.440;2023-08-06T06:00:11;94908.91;;;14.84;82.38
70684;BME280;58263;48.146;11.440;2023-08-06T06:02:37;94901.84;;;14.94;83.77
70684;BME280;58263;48.146;11.440;2023-08-06T06:05:02;94905.94;;;14.86;81.99
70684;BME280;58263;48.146;11.440;2023-08-06T06:07:27;94900.97;;;15.03;81.72
70684;BME280;58263;48.146;11.440;2023-08-06T06:09:53;94908.25;;;15.08;81.61
70684;BME280;58263;48.146;11.440;2023-08-06T06:12:18;94908.75;;;15.15;81.54
70684;BME280;58263;48.146;11.440;2023-08-06T06:14:43;94914.13;;;15.20;80.61
70684;BME280;58263;48.146;11.440;2023-08-06T06:17:09;94921.19;;;15.16;80.37
70684;BME280;58263;48.146;11.440;2023-08-06T06:19:34;94916.75;;;15.31;80.32
70684;BME280;58263;48.146;11.440;2023-08-06T06:21:59;94924.38;;;15.24;80.14
70684;BME280;58263;48.146;11.440;2023-08-06T06:24:24;94916.44;;;15.37;79.98
70684;BME280;58263;48.146;11.440;2023-08-06T06:26:50;94913.84;;;15.57;78.07
70684;BME280;58263;48.146;11.440;2023-08-06T06:29:15;94917.09;;;15.59;77.40
70684;BME280;58263;48.146;11.440;2023-08-06T06:31:41;94907.34;;;15.63;77.05
70684;BME280;58263;48.146;11.440;2023-08-06T06:34:06;94914.84;;;15.71;76.34
70684;BME280;58263;48.146;11.440;2023-08-06T06:36:31;94914.25;;;15.74;76.18
70684;BME280;58263;48.146;11.440;2023-08-06T06:38:56;94915.91;;;15.70;76.49
70684;BME280;58263;48.146;11.440;2023-08-06T06:41:22;94908.84;;;15.74;77.11
70684;BME280;58263;48.146;11.440;2023-08-06T06:43:47;94904.38;;;15.94;74.78
70684;BME280;58263;48.146;11.440;2023-08-06T06:46:12;94905.22;;;16.18;73.65
70684;BME280;58263;48.146;11.440;2023-08-06T06:48:38;94896.69;;;16.06;72.53
70684;BME280;58263;48.146;11.440;2023-08-06T06:51:03;94905.78;;;16.39;73.71
70684;BME280;58263;48.146;11.440;2023-08-06T06:53:28;94900.66;;;16.62;71.93
70684;BME280;58263;48.146;11.440;2023-08-06T06:56:02;94916.56;;;16.69;69.79
70684;BME280;58263;48.146;11.440;2023-08-06T06:58:27;94912.75;;;17.13;68.85
70684;BME280;58263;48.146;11.440;2023-08-06T07:00:53;94923.00;;;17.35;68.88
70684;BME280;58263;48.146;11.440;2023-08-06T07:03:20;94918.31;;;17.60;66.56
70684;BME280;58263;48.146;11.440;2023-08-06T07:05:45;94912.47;;;17.67;66.12
70684;BME280;58263;48.146;11.440;2023-08-06T07:08:11;94918.69;;;17.34;65.46
70684;BME280;58263;48.146;11.440;2023-08-06T07:10:36;94912.75;;;17.32;66.66
70684;BME280;58263;48.146;11.440;2023-08-06T07:13:02;94921.47;;;17.10;66.87
70684;BME280;58263;48.146;11.440;2023-08-06T07:15:27;94920.44;;;17.06;67.12
70684;BME280;58263;48.146;11.440;2023-08-06T07:17:52;94932.81;;;16.69;68.46
70684;BME280;58263;48.146;11.440;2023-08-06T07:20:18;94924.16;;;16.43;71.43
70684;BME280;58263;48.146;11.440;2023-08-06T07:22:44;94924.97;;;16.43;72.11
70684;BME280;58263;48.146;11.440;2023-08-06T07:25:10;94926.56;;;16.44;72.15
70684;BME280;58263;48.146;11.440;2023-08-06T07:27:35;94917.66;;;16.44;71.86
70684;BME280;58263;48.146;11.440;2023-08-06T07:30:01;94921.63;;;16.51;72.07
70684;BME280;58263;48.146;11.440;2023-08-06T07:32:26;94905.69;;;16.26;72.75
70684;BME280;58263;48.146;11.440;2023-08-06T07:34:53;94918.63;;;16.29;71.26
70684;BME280;58263;48.146;11.440;2023-08-06T07:37:22;94916.66;;;16.34;71.67
70684;BME280;58263;48.146;11.440;2023-08-06T07:39:47;94912.53;;;16.42;71.46
70684;BME280;58263;48.146;11.440;2023-08-06T07:42:13;94911.94;;;16.45;72.09
70684;BME280;58263;48.146;11.440;2023-08-06T07:44:38;94907.72;;;16.39;70.32
70684;BME280;58263;48.146;11.440;2023-08-06T07:47:04;94911.16;;;16.69;70.18
70684;BME280;58263;48.146;11.440;2023-08-06T07:49:29;94902.72;;;16.70;71.04
70684;BME280;58263;48.146;11.440;2023-08-06T07:51:55;94900.94;;;17.04;69.18
70684;BME280;58263;48.146;11.440;2023-08-06T07:54:20;94901.97;;;17.08;68.13
70684;BME280;58263;48.146;11.440;2023-08-06T07:56:45;94895.09;;;17.35;67.76
70684;BME280;58263;48.146;11.440;2023-08-06T07:59:10;94884.16;;;17.59;66.81
70684;BME280;58263;48.146;11.440;2023-08-06T08:01:36;94898.97;;;17.81;65.66
70684;BME280;58263;48.146;11.440;2023-08-06T08:04:01;94894.97;;;18.25;64.30
70684;BME280;58263;48.146;11.440;2023-08-06T08:06:26;94884.91;;;18.67;63.45
70684;BME280;58263;48.146;11.440;2023-08-06T08:08:52;94891.94;;;18.82;63.35
70684;BME280;58263;48.146;11.440;2023-08-06T08:11:17;94896.38;;;18.78;62.43
70684;BME280;58263;48.146;11.440;2023-08-06T08:13:43;94888.19;;;19.06;60.93
70684;BME280;58263;48.146;11.440;2023-08-06T08:16:09;94887.09;;;19.66;59.34
70684;BME280;58263;48.146;11.440;2023-08-06T08:18:34;94881.22;;;19.50;58.78
70684;BME280;58263;48.146;11.440;2023-08-06T08:20:59;94883.44;;;19.71;58.88
70684;BME280;58263;48.146;11.440;2023-08-06T08:23:25;94876.97;;;19.81;58.17
70684;BME280;58263;48.146;11.440;2023-08-06T08:25:50;94882.69;;;19.34;57.67
70684;BME280;58263;48.146;11.440;2023-08-06T08:28:15;94877.00;;;19.21;57.66
70684;BME280;58263;48.146;11.440;2023-08-06T08:30:41;94876.63;;;19.14;57.62
70684;BME280;58263;48.146;11.440;2023-08-06T08:33:06;94883.47;;;18.98;58.21
70684;BME280;58263;48.146;11.440;2023-08-06T08:35:33;94877.06;;;18.66;57.62
70684;BME280;58263;48.146;11.440;2023-08-06T08:37:58;94880.41;;;18.63;57.27
70684;BME280;58263;48.146;11.440;2023-08-06T08:40:29;94877.13;;;18.05;58.47
70684;BME280;58263;48.146;11.440;2023-08-06T08:42:56;94878.97;;;18.10;59.37
70684;BME280;58263;48.146;11.440;2023-08-06T08:45:26;94876.66;;;18.45;58.77
70684;BME280;58263;48.146;11.440;2023-08-06T08:47:51;94889.53;;;18.39;57.60
70684;BME280;58263;48.146;11.440;2023-08-06T08:50:17;94897.16;;;18.79;56.96
70684;BME280;58263;48.146;11.440;2023-08-06T08:52:44;94886.53;;;18.54;57.49
70684;BME280;58263;48.146;11.440;2023-08-06T08:55:12;94891.53;;;18.75;58.06
70684;BME280;58263;48.146;11.440;2023-08-06T08:57:39;94888.91;;;18.14;56.65
70684;BME280;58263;48.146;11.440;2023-08-06T09:00:04;94889.56;;;18.53;56.57
70684;BME280;58263;48.146;11.440;2023-08-06T09:02:32;94895.69;;;18.58;57.15
70684;BME280;58263;48.146;11.440;2023-08-06T09:04:59;94891.44;;;18.52;57.11
70684;BME280;58263;48.146;11.440;2023-08-06T09:07:29;94897.81;;;18.48;57.99
70684;BME280;58263;48.146;11.440;2023-08-06T09:09:57;94896.56;;;18.12;57.77
70684;BME280;58263;48.146;11.440;2023-08-06T09:12:24;94897.47;;;17.88;59.36
70684;BME280;58263;48.146;11.440;2023-08-06T09:14:50;94907.22;;;17.89;59.73
70684;BME280;58263;48.146;11.440;2023-08-06T09:17:16;94892.22;;;17.64;59.60
70684;BME280;58263;48.146;11.440;2023-08-06T09:19:44;94902.44;;;17.15;58.98
70684;BME280;58263;48.146;11.440;2023-08-06T09:22:12;94903.09;;;17.45;58.71
70684;BME280;58263;48.146;11.440;2023-08-06T09:24:42;94908.94;;;17.52;58.85
70684;BME280;58263;48.146;11.440;2023-08-06T09:27:12;94898.94;;;17.48;60.12
70684;BME280;58263;48.146;11.440;2023-08-06T09:29:45;94906.88;;;17.44;60.65
70684;BME280;58263;48.146;11.440;2023-08-06T09:32:13;94911.00;;;17.94;60.29
70684;BME280;58263;48.146;11.440;2023-08-06T09:34:41;94892.88;;;17.89;58.95
70684;BME280;58263;48.146;11.440;2023-08-06T09:37:08;94901.38;;;17.68;58.37
70684;BME280;58263;48.146;11.440;2023-08-06T09:39:34;94896.75;;;18.02;58.33
70684;BME280;58263;48.146;11.440;2023-08-06T09:42:01;94893.31;;;17.96;59.60
70684;BME280;58263;48.146;11.440;2023-08-06T09:44:28;94900.50;;;17.87;57.94
70684;BME280;58263;48.146;11.440;2023-08-06T09:46:57;94906.94;;;17.91;57.78
70684;BME280;58263;48.146;11.440;2023-08-06T09:51:59;94901.69;;;18.55;56.72
70684;BME280;58263;48.146;11.440;2023-08-06T09:54:26;94901.91;;;18.59;56.38
70684;BME280;58263;48.146;11.440;2023-08-06T09:56:53;94913.47;;;18.65;56.76
70684;BME280;58263;48.146;11.440;2023-08-06T09:59:19;94905.59;;;18.21;56.25
70684;BME280;58263;48.146;11.440;2023-08-06T10:01:45;94909.91;;;18.08;56.74
70684;BME280;58263;48.146;11.440;2023-08-06T10:04:13;94904.41;;;17.81;57.69
70684;BME280;58263;48.146;11.440;2023-08-06T10:06:42;94916.13;;;17.95;57.63
70684;BME280;58263;48.146;11.440;2023-08-06T10:09:07;94917.72;;;17.63;57.63
70684;BME280;58263;48.146;11.440;2023-08-06T10:11:33;94931.53;;;17.81;57.10
70684;BME280;58263;48.146;11.440;2023-08-06T10:16:35;94922.03;;;18.86;53.86
70684;BME280;58263;48.146;11.440;2023-08-06T10:19:02;94920.91;;;18.87;53.79
70684;BME280;58263;48.146;11.440;2023-08-06T10:21:30;94914.50;;;19.33;54.44
70684;BME280;58263;48.146;11.440;2023-08-06T10:23:56;94912.94;;;19.77;53.92
70684;BME280;58263;48.146;11.440;2023-08-06T10:26:26;94911.34;;;19.17;53.95
70684;BME280;58263;48.146;11.440;2023-08-06T10:28:52;94930.47;;;19.12;54.34
70684;BME280;58263;48.146;11.440;2023-08-06T10:31:18;94935.50;;;18.77;56.80
70684;BME280;58263;48.146;11.440;2023-08-06T10:33:45;94926.53;;;18.35;56.68
70684;BME280;58263;48.146;11.440;2023-08-06T10:36:11;94932.72;;;18.07;57.14
70684;BME280;58263;48.146;11.440;2023-08-06T10:38:47;94930.22;;;18.11;57.82
70684;BME280;58263;48.146;11.440;2023-08-06T10:41:16;94929.31;;;18.02;56.88
70684;BME280;58263;48.146;11.440;2023-08-06T10:43:42;94937.06;;;18.08;57.13
70684;BME280;58263;48.146;11.440;2023-08-06T10:46:11;94929.78;;;18.37;56.09
70684;BME280;58263;48.146;11.440;2023-08-06T10:48:41;94924.75;;;18.58;55.34
70684;BME280;58263;48.146;11.440;2023-08-06T10:51:12;94919.22;;;19.64;52.72
70684;BME280;58263;48.146;11.440;2023-08-06T10:53:38;94924.44;;;19.97;51.65
70684;BME280;58263;48.146;11.440;2023-08-06T10:56:16;94926.81;;;20.44;50.71
70684;BME280;58263;48.146;11.440;2023-08-06T10:58:46;94920.78;;;20.65;50.12
70684;BME280;58263;48.146;11.440;2023-08-06T11:01:12;94912.75;;;19.97;51.29
70684;BME280;58263;48.146;11.440;2023-08-06T11:03:38;94910.53;;;21.19;48.72
70684;BME280;58263;48.146;11.440;2023-08-06T11:06:04;94918.72;;;21.19;48.30
70684;BME280;58263;48.146;11.440;2023-08-06T11:08:34;94922.66;;;20.47;49.54
70684;BME280;58263;48.146;11.440;2023-08-06T11:11:13;94932.31;;;19.99;50.90
70684;BME280;58263;48.146;11.440;2023-08-06T11:13:43;94941.94;;;20.27;50.87
70684;BME280;58263;48.146;11.440;2023-08-06T11:16:11;94935.75;;;19.68;51.82
70684;BME280;58263;48.146;11.440;2023-08-06T11:18:37;94953.56;;;19.51;52.89
70684;BME280;58263;48.146;11.440;2023-08-06T11:21:02;94950.44;;;19.44;52.33
70684;BME280;58263;48.146;11.440;2023-08-06T11:23:29;94938.09;;;19.61;52.48
70684;BME280;58263;48.146;11.440;2023-08-06T11:25:55;94940.09;;;19.69;52.35
70684;BME280;58263;48.146;11.440;2023-08-06T11:28:20;94953.81;;;19.27;54.47
70684;BME280;58263;48.146;11.440;2023-08-06T11:30:47;94950.69;;;19.06;57.16
70684;BME280;58263;48.146;11.440;2023-08-06T11:33:12;94954.13;;;18.98;57.29
70684;BME280;58263;48.146;11.440;2023-08-06T11:35:38;94945.88;;;19.03;57.47
70684;BME280;58263;48.146;11.440;2023-08-06T11:38:05;94950.47;;;19.30;56.22
70684;BME280;58263;48.146;11.440;2023-08-06T11:40:32;94945.06;;;19.53;54.18
70684;BME280;58263;48.146;11.440;2023-08-06T11:42:58;94956.78;;;19.76;53.38
70684;BME280;58263;48.146;11.440;2023-08-06T11:45:26;94939.22;;;21.08;49.82
70684;BME280;58263;48.146;11.440;2023-08-06T11:47:53;94956.53;;;19.64;51.82
70684;BME280;58263;48.146;11.440;2023-08-06T11:50:25;94959.47;;;20.13;51.60
70684;BME280;58263;48.146;11.440;2023-08-06T11:52:58;94956.13;;;20.16;51.88
70684;BME280;58263;48.146;11.440;2023-08-06T11:55:26;94964.72;;;20.09;52.41
70684;BME280;58263;48.146;11.440;2023-08-06T11:57:52;94962.16;;;19.81;52.31
70684;BME280;58263;48.146;11.440;2023-08-06T12:00:17;94971.91;;;19.82;52.00
70684;BME280;58263;48.146;11.440;2023-08-06T12:02:46;94970.75;;;19.61;53.35
70684;BME280;58263;48.146;11.440;2023-08-06T12:05:15;94972.16;;;19.21;54.50
70684;BME280;58263;48.146;11.440;2023-08-06T12:07:43;94969.63;;;18.83;54.50
70684;BME280;58263;48.146;11.440;2023-08-06T12:10:09;94977.19;;;19.00;55.07
70684;BME280;58263;48.146;11.440;2023-08-06T12:12:35;94961.97;;;18.85;55.36
70684;BME280;58263;48.146;11.440;2023-08-06T12:15:01;94959.25;;;18.85;55.43
70684;BME280;58263;48.146;11.440;2023-08-06T12:17:26;94962.47;;;18.59;55.93
70684;BME280;58263;48.146;11.440;2023-08-06T12:19:52;94971.63;;;18.50;56.40
70684;BME280;58263;48.146;11.440;2023-08-06T12:22:17;94968.44;;;18.89;55.08
70684;BME280;58263;48.146;11.440;2023-08-06T12:24:45;94965.00;;;18.84;54.92
70684;BME280;58263;48.146;11.440;2023-08-06T12:27:11;94958.78;;;18.97;54.70
70684;BME280;58263;48.146;11.440;2023-08-06T12:29:47;94958.16;;;18.72;55.40
70684;BME280;58263;48.146;11.440;2023-08-06T12:32:13;94958.72;;;18.28;56.33
70684;BME280;58263;48.146;11.440;2023-08-06T12:34:39;94969.09;;;18.26;56.84
70684;BME280;58263;48.146;11.440;2023-08-06T12:37:05;94976.09;;;18.27;58.08
70684;BME280;58263;48.146;11.440;2023-08-06T12:39:32;94993.84;;;18.05;59.43
70684;BME280;58263;48.146;11.440;2023-08-06T12:41:58;94989.63;;;17.61;62.87
70684;BME280;58263;48.146;11.440;2023-08-06T12:44:24;94983.66;;;17.97;63.41
70684;BME280;58263;48.146;11.440;2023-08-06T12:46:50;94988.06;;;17.54;63.83
70684;BME280;58263;48.146;11.440;2023-08-06T12:49:16;94998.19;;;17.68;63.39
70684;BME280;58263;48.146;11.440;2023-08-06T12:51:42;94982.72;;;17.87;60.98
70684;BME280;58263;48.146;11.440;2023-08-06T12:54:08;94993.94;;;17.81;60.81